createdAt,value
2022-08-20T00:02:17.414Z,18.69
2022-08-20T00:05:06.117Z,18.64
2022-08-20T00:07:54.178Z,18.61
2022-08-20T00:10:45.148Z,18.56
2022-08-20T00:13:39.218Z,18.59
2022-08-20T00:16:32.791Z,18.53
2022-08-20T00:19:23.566Z,18.51
2022-08-20T00:22:15.223Z,18.47
2022-08-20T00:25:03.436Z,18.45
2022-08-20T00:27:51.585Z,18.40
2022-08-20T00:30:41.241Z,18.42
2022-08-20T00:33:29.322Z,18.45
2022-08-20T00:36:18.969Z,18.46
2022-08-20T00:39:07.077Z,18.44
2022-08-20T00:41:55.112Z,18.44
2022-08-20T00:44:46.520Z,18.38
2022-08-20T00:47:34.796Z,18.29
2022-08-20T00:50:27.734Z,18.25
2022-08-20T00:53:19.171Z,18.20
2022-08-20T00:56:08.506Z,18.12
2022-08-20T00:58:57.299Z,18.07
2022-08-20T01:01:55.229Z,18.00
2022-08-20T01:04:47.535Z,18.00
2022-08-20T01:07:36.446Z,17.96
2022-08-20T01:10:29.640Z,17.95
2022-08-20T01:13:23.631Z,17.96
2022-08-20T01:16:19.749Z,17.93
2022-08-20T01:19:29.444Z,17.89
2022-08-20T01:22:43.555Z,17.90
2022-08-20T01:25:42.065Z,17.85
2022-08-20T01:28:35.270Z,17.93
2022-08-20T01:31:25.542Z,18.03
2022-08-20T01:34:15.796Z,18.00
2022-08-20T01:37:04.220Z,17.93
2022-08-20T01:39:52.266Z,18.13
2022-08-20T01:42:58.827Z,18.38
2022-08-20T01:45:47.818Z,18.49
2022-08-20T01:48:38.770Z,18.46
2022-08-20T01:51:30.782Z,18.53
2022-08-20T01:54:18.902Z,18.53
2022-08-20T01:57:12.901Z,18.63
2022-08-20T02:00:03.026Z,18.68
2022-08-20T02:02:53.561Z,18.79
2022-08-20T02:05:42.017Z,18.91
2022-08-20T02:08:33.131Z,19.00
2022-08-20T02:11:21.308Z,19.05
2022-08-20T02:14:12.100Z,19.10
2022-08-20T02:17:01.509Z,19.13
2022-08-20T02:19:53.825Z,19.11
2022-08-20T02:22:50.035Z,19.06
2022-08-20T02:25:41.124Z,19.08
2022-08-20T02:28:29.677Z,19.13
2022-08-20T02:31:19.109Z,19.15
2022-08-20T02:34:21.700Z,19.00
2022-08-20T02:37:14.458Z,19.26
2022-08-20T02:40:02.631Z,19.32
2022-08-20T02:42:50.822Z,19.36
2022-08-20T02:45:43.815Z,19.38
2022-08-20T02:48:33.548Z,19.42
2022-08-20T02:51:30.569Z,19.47
2022-08-20T02:54:18.778Z,19.46
2022-08-20T02:57:12.896Z,19.47
2022-08-20T03:00:02.047Z,19.55
2022-08-20T03:02:50.409Z,19.47
2022-08-20T03:05:40.441Z,19.56
2022-08-20T03:08:30.394Z,19.58
2022-08-20T03:11:19.275Z,19.56
2022-08-20T03:14:07.359Z,19.57
2022-08-20T03:16:55.500Z,19.63
2022-08-20T03:19:43.530Z,19.65
2022-08-20T03:22:31.556Z,19.68
2022-08-20T03:25:21.495Z,19.77
2022-08-20T03:28:10.148Z,19.79
2022-08-20T03:30:59.339Z,19.77
2022-08-20T03:33:52.788Z,19.75
2022-08-20T03:36:41.849Z,19.79
2022-08-20T03:39:29.883Z,19.81
2022-08-20T03:42:19.282Z,19.81
2022-08-20T03:45:09.173Z,19.96
2022-08-20T03:47:57.928Z,20.07
2022-08-20T03:50:48.217Z,20.14
2022-08-20T03:53:36.284Z,20.11
2022-08-20T03:56:24.410Z,20.11
2022-08-20T03:59:13.764Z,20.10
2022-08-20T04:02:02.243Z,20.10
2022-08-20T04:04:50.308Z,20.09
2022-08-20T04:07:38.675Z,20.07
2022-08-20T04:10:27.007Z,20.07
2022-08-20T04:13:19.589Z,20.01
2022-08-20T04:16:14.461Z,20.00
2022-08-20T04:19:05.038Z,20.00
2022-08-20T04:21:53.123Z,20.06
2022-08-20T04:24:41.673Z,20.09
2022-08-20T04:27:29.871Z,20.07
2022-08-20T04:30:19.671Z,20.00
2022-08-20T04:33:09.459Z,19.99
2022-08-20T04:36:00.849Z,20.00
2022-08-20T04:38:50.928Z,20.00
2022-08-20T04:41:39.278Z,19.99
2022-08-20T04:44:27.494Z,19.93
2022-08-20T04:47:24.683Z,19.69
2022-08-20T04:50:24.834Z,19.59
2022-08-20T04:53:20.694Z,19.93
2022-08-20T04:56:12.181Z,19.89
2022-08-20T04:59:02.244Z,19.86
2022-08-20T05:01:50.247Z,19.81
2022-08-20T05:04:38.584Z,19.86
2022-08-20T05:07:27.908Z,19.86
2022-08-20T05:10:18.829Z,19.90
2022-08-20T05:13:07.222Z,19.94
2022-08-20T05:15:56.099Z,19.69
2022-08-20T05:18:45.236Z,20.04
2022-08-20T05:21:40.726Z,20.07
2022-08-20T05:24:30.181Z,20.28
2022-08-20T05:27:24.613Z,20.34
2022-08-20T05:30:13.539Z,20.39
2022-08-20T05:33:03.320Z,20.47
2022-08-20T05:35:52.791Z,20.58
2022-08-20T05:38:40.775Z,20.62
2022-08-20T05:41:30.718Z,20.63
2022-08-20T05:44:19.816Z,20.71
2022-08-20T05:47:07.909Z,20.70
2022-08-20T05:49:56.523Z,20.76
2022-08-20T05:52:45.401Z,20.80
2022-08-20T05:55:33.570Z,20.80
2022-08-20T05:58:25.546Z,20.91
2022-08-20T06:01:13.641Z,20.94
2022-08-20T06:04:19.323Z,20.92
2022-08-20T06:07:08.263Z,20.79
2022-08-20T06:09:56.406Z,20.66
2022-08-20T06:12:45.448Z,20.45
2022-08-20T06:15:35.628Z,20.26
2022-08-20T06:18:28.439Z,20.30
2022-08-20T06:21:16.977Z,20.47
2022-08-20T06:24:06.629Z,20.63
2022-08-20T06:26:56.924Z,20.92
2022-08-20T06:29:45.735Z,21.21
2022-08-20T06:32:35.145Z,21.32
2022-08-20T06:35:23.544Z,21.39
2022-08-20T06:38:12.535Z,21.21
2022-08-20T06:41:00.584Z,21.08
2022-08-20T06:43:48.612Z,20.79
2022-08-20T06:46:36.942Z,20.58
2022-08-20T06:49:26.372Z,20.39
2022-08-20T06:52:17.262Z,20.20
2022-08-20T06:55:07.838Z,20.02
2022-08-20T06:58:00.410Z,19.95
2022-08-20T07:00:48.927Z,19.86
2022-08-20T07:03:38.001Z,19.74
2022-08-20T07:06:28.518Z,19.46
2022-08-20T07:09:16.625Z,19.67
2022-08-20T07:12:05.214Z,19.87
2022-08-20T07:14:55.111Z,20.06
2022-08-20T07:17:43.760Z,19.95
2022-08-20T07:20:33.938Z,20.35
2022-08-20T07:23:23.357Z,20.57
2022-08-20T07:26:11.416Z,20.74
2022-08-20T07:28:59.720Z,20.97
2022-08-20T07:32:05.161Z,21.28
2022-08-20T07:34:53.698Z,21.43
2022-08-20T07:37:43.801Z,21.36
2022-08-20T07:40:35.978Z,21.25
2022-08-20T07:43:24.557Z,21.13
2022-08-20T07:46:13.676Z,21.18
2022-08-20T07:49:02.136Z,21.17
2022-08-20T07:51:50.130Z,21.25
2022-08-20T07:54:38.259Z,21.51
2022-08-20T07:57:27.541Z,21.85
2022-08-20T08:00:17.392Z,21.95
2022-08-20T08:03:06.168Z,21.94
2022-08-20T08:05:54.646Z,21.85
2022-08-20T08:08:43.598Z,21.85
2022-08-20T08:11:34.487Z,22.12
2022-08-20T08:14:28.930Z,22.76
2022-08-20T08:17:18.925Z,22.89
2022-08-20T08:20:09.062Z,23.08
2022-08-20T08:22:58.782Z,23.44
2022-08-20T08:25:47.112Z,23.61
2022-08-20T08:28:36.898Z,24.10
2022-08-20T08:31:26.627Z,24.78
2022-08-20T08:34:14.738Z,24.88
2022-08-20T08:37:03.163Z,25.19
2022-08-20T08:39:51.529Z,25.17
2022-08-20T08:42:44.693Z,25.39
2022-08-20T08:45:52.054Z,25.08
2022-08-20T08:48:44.356Z,24.67
2022-08-20T08:51:39.008Z,24.46
2022-08-20T08:54:31.265Z,24.41
2022-08-20T08:57:19.533Z,24.14
2022-08-20T09:00:13.558Z,23.72
2022-08-20T09:03:04.778Z,23.59
2022-08-20T09:06:02.647Z,23.13
2022-08-20T09:08:53.698Z,22.99
2022-08-20T09:11:48.035Z,23.08
2022-08-20T09:14:37.200Z,22.97
2022-08-20T09:17:25.844Z,23.16
2022-08-20T09:20:13.985Z,23.46
2022-08-20T09:23:06.374Z,23.78
2022-08-20T09:25:54.412Z,23.80
2022-08-20T09:28:42.427Z,23.74
2022-08-20T09:31:30.557Z,23.76
2022-08-20T09:34:18.818Z,23.71
2022-08-20T09:37:06.977Z,23.84
2022-08-20T09:39:57.308Z,23.68
2022-08-20T09:42:45.398Z,23.57
2022-08-20T09:45:33.692Z,23.45
2022-08-20T09:48:21.714Z,23.40
2022-08-20T09:51:20.249Z,23.34
2022-08-20T09:54:08.296Z,23.02
2022-08-20T09:56:59.038Z,22.76
2022-08-20T09:59:51.909Z,22.78
2022-08-20T10:02:40.166Z,22.72
2022-08-20T10:05:28.188Z,22.76
2022-08-20T10:08:16.727Z,22.60
2022-08-20T10:11:05.232Z,22.42
2022-08-20T10:13:54.555Z,22.21
2022-08-20T10:16:42.565Z,22.06
2022-08-20T10:19:32.187Z,22.02
2022-08-20T10:22:20.215Z,22.03
2022-08-20T10:25:09.383Z,22.42
2022-08-20T10:27:58.610Z,22.66
2022-08-20T10:30:47.980Z,23.14
2022-08-20T10:33:36.514Z,23.83
2022-08-20T10:36:24.441Z,24.29
2022-08-20T10:39:12.834Z,24.73
2022-08-20T10:42:00.861Z,25.21
2022-08-20T10:44:48.964Z,25.73
2022-08-20T10:47:38.608Z,25.87
2022-08-20T10:50:30.308Z,25.81
2022-08-20T10:53:19.296Z,26.16
2022-08-20T10:56:08.002Z,26.33
2022-08-20T10:58:56.005Z,26.48
2022-08-20T11:01:44.166Z,26.83
2022-08-20T11:04:33.542Z,27.19
2022-08-20T11:07:50.549Z,27.26
2022-08-20T11:10:35.872Z,27.17
2022-08-20T11:13:24.063Z,27.00
2022-08-20T11:16:12.109Z,26.90
2022-08-20T11:19:00.110Z,26.82
2022-08-20T11:21:50.640Z,26.70
2022-08-20T11:24:39.410Z,26.57
2022-08-20T11:27:29.792Z,27.03
2022-08-20T11:30:20.411Z,26.67
2022-08-20T11:33:08.868Z,26.94
2022-08-20T11:35:57.081Z,27.11
2022-08-20T11:38:46.451Z,27.71
2022-08-20T11:41:34.521Z,28.01
2022-08-20T11:44:22.664Z,27.71
2022-08-20T11:47:20.158Z,27.81
2022-08-20T11:50:11.688Z,27.58
2022-08-20T11:53:01.603Z,27.32
2022-08-20T11:55:51.236Z,28.09
2022-08-20T11:58:39.249Z,28.48
2022-08-20T12:01:27.473Z,28.14
2022-08-20T12:04:15.460Z,27.71
2022-08-20T12:07:10.261Z,27.73
2022-08-20T12:09:58.251Z,28.14
2022-08-20T12:12:47.654Z,27.88
2022-08-20T12:15:36.455Z,27.89
2022-08-20T12:18:27.049Z,27.93
2022-08-20T12:21:15.850Z,27.98
2022-08-20T12:24:04.080Z,27.42
2022-08-20T12:26:52.074Z,27.27
2022-08-20T12:29:43.257Z,27.88
2022-08-20T12:32:33.146Z,28.36
2022-08-20T12:35:21.323Z,28.72
2022-08-20T12:38:09.321Z,29.44
2022-08-20T12:40:57.371Z,29.68
2022-08-20T12:43:45.366Z,29.93
2022-08-20T12:46:34.692Z,29.97
2022-08-20T12:49:22.680Z,29.88
2022-08-20T12:52:10.803Z,29.87
2022-08-20T12:54:59.959Z,29.63
2022-08-20T12:57:49.916Z,29.18
2022-08-20T13:00:43.308Z,28.77
2022-08-20T13:03:32.691Z,29.31
2022-08-20T13:06:28.876Z,29.75
2022-08-20T13:09:17.880Z,29.25
2022-08-20T13:12:06.288Z,28.30
2022-08-20T13:14:54.331Z,28.20
2022-08-20T13:17:42.927Z,28.49
2022-08-20T13:20:34.140Z,28.96
2022-08-20T13:23:22.839Z,29.09
2022-08-20T13:26:10.888Z,28.69
2022-08-20T13:28:58.923Z,28.14
2022-08-20T13:31:48.780Z,28.52
2022-08-20T13:34:36.783Z,29.25
2022-08-20T13:37:29.890Z,28.53
2022-08-20T13:40:18.757Z,28.21
2022-08-20T13:43:11.736Z,29.15
2022-08-20T13:46:00.211Z,29.94
2022-08-20T13:48:48.246Z,30.32
2022-08-20T13:51:36.308Z,30.54
2022-08-20T13:54:30.175Z,30.18
2022-08-20T13:57:20.350Z,29.86
2022-08-20T14:00:11.871Z,29.29
2022-08-20T14:03:00.339Z,29.48
2022-08-20T14:05:48.478Z,29.94
2022-08-20T14:08:36.877Z,30.34
2022-08-20T14:11:26.361Z,30.62
2022-08-20T14:14:14.398Z,30.76
2022-08-20T14:17:16.404Z,30.83
2022-08-20T14:20:08.585Z,30.91
2022-08-20T14:22:58.400Z,30.99
2022-08-20T14:25:49.284Z,31.03
2022-08-20T14:28:38.589Z,30.89
2022-08-20T14:31:26.551Z,30.84
2022-08-20T14:34:14.612Z,30.66
2022-08-20T14:37:12.093Z,30.72
2022-08-20T14:40:02.128Z,30.75
2022-08-20T14:42:51.402Z,30.70
2022-08-20T14:45:41.286Z,30.70
2022-08-20T14:48:29.304Z,30.54
2022-08-20T14:51:17.319Z,30.56
2022-08-20T14:54:05.742Z,30.65
2022-08-20T14:56:54.787Z,30.89
2022-08-20T14:59:43.520Z,31.05
2022-08-20T15:02:32.872Z,30.94
2022-08-20T15:05:21.062Z,30.94
2022-08-20T15:08:10.499Z,30.77
2022-08-20T15:10:59.308Z,30.46
2022-08-20T15:13:47.319Z,30.32
2022-08-20T15:16:35.818Z,30.33
2022-08-20T15:19:25.173Z,30.39
2022-08-20T15:22:13.190Z,30.46
2022-08-20T15:25:01.233Z,30.50
2022-08-20T15:27:49.819Z,30.56
2022-08-20T15:30:39.756Z,30.53
2022-08-20T15:33:27.841Z,30.35
2022-08-20T15:36:17.409Z,30.39
2022-08-20T15:39:05.669Z,30.33
2022-08-20T15:41:53.810Z,30.31
2022-08-20T15:44:42.786Z,30.40
2022-08-20T15:47:34.880Z,30.36
2022-08-20T15:50:38.333Z,30.01
2022-08-20T15:53:34.034Z,30.13
2022-08-20T15:56:41.505Z,30.27
2022-08-20T15:59:55.446Z,30.11
2022-08-20T16:02:58.679Z,30.16
2022-08-20T16:05:55.326Z,29.99
2022-08-20T16:09:01.172Z,30.04
2022-08-20T16:11:55.800Z,30.04
2022-08-20T16:14:48.522Z,30.05
2022-08-20T16:17:41.246Z,29.94
2022-08-20T16:20:35.615Z,29.90
2022-08-20T16:23:29.841Z,29.92
2022-08-20T16:26:35.373Z,29.54
2022-08-20T16:29:27.434Z,29.49
2022-08-20T16:32:26.264Z,29.59
2022-08-20T16:35:33.909Z,29.61
2022-08-20T16:38:33.144Z,29.48
2022-08-20T16:41:29.709Z,29.24
2022-08-20T16:44:25.381Z,29.18
2022-08-20T16:47:19.065Z,29.11
2022-08-20T16:50:11.068Z,29.28
2022-08-20T16:52:59.144Z,29.31
2022-08-20T16:55:47.724Z,29.19
2022-08-20T16:58:37.371Z,29.85
2022-08-20T17:01:27.523Z,30.87
2022-08-20T17:04:21.780Z,31.79
2022-08-20T17:07:11.758Z,31.06
2022-08-20T17:10:12.333Z,29.49
2022-08-20T17:13:04.657Z,28.57
2022-08-20T17:15:59.699Z,27.72
2022-08-20T17:18:50.145Z,27.42
2022-08-20T17:21:39.068Z,27.00
2022-08-20T17:24:31.036Z,26.78
2022-08-20T17:27:34.986Z,26.65
2022-08-20T17:30:28.712Z,26.53
2022-08-20T17:33:26.931Z,26.41
2022-08-20T17:36:20.678Z,26.16
2022-08-20T17:39:17.638Z,26.00
2022-08-20T17:42:08.905Z,25.82
2022-08-20T17:45:04.425Z,25.61
2022-08-20T17:47:53.708Z,25.71
2022-08-20T17:50:44.462Z,25.62
2022-08-20T17:53:35.068Z,25.49
2022-08-20T17:56:27.171Z,25.32
2022-08-20T17:59:33.639Z,25.20
2022-08-20T18:02:26.564Z,25.07
2022-08-20T18:05:20.255Z,25.04
2022-08-20T18:08:20.604Z,24.89
2022-08-20T18:11:23.154Z,24.89
2022-08-20T18:14:43.239Z,24.69
2022-08-20T18:17:50.637Z,24.60
2022-08-20T18:20:50.267Z,24.38
2022-08-20T18:23:47.654Z,24.24
2022-08-20T18:26:45.202Z,23.99
2022-08-20T18:29:36.955Z,23.71
2022-08-20T18:32:32.246Z,23.44
2022-08-20T18:35:23.521Z,23.17
2022-08-20T18:38:14.167Z,22.90
2022-08-20T18:41:13.670Z,22.68
2022-08-20T18:44:09.158Z,22.51
2022-08-20T18:47:00.569Z,22.26
2022-08-20T18:50:00.231Z,22.17
2022-08-20T18:52:50.924Z,21.85
2022-08-20T18:55:42.691Z,22.01
2022-08-20T18:58:34.205Z,21.90
2022-08-20T19:01:22.353Z,21.77
2022-08-20T19:04:27.167Z,21.70
2022-08-20T19:07:17.281Z,21.63
2022-08-20T19:10:28.072Z,21.58
2022-08-20T19:13:47.254Z,21.45
2022-08-20T19:16:40.568Z,21.37
2022-08-20T19:19:32.812Z,21.31
2022-08-20T19:22:22.103Z,21.18
2022-08-20T19:25:20.797Z,21.12
2022-08-20T19:28:20.930Z,20.99
2022-08-20T19:31:12.703Z,21.06
2022-08-20T19:34:04.009Z,21.02
2022-08-20T19:37:34.994Z,20.87
2022-08-20T19:40:28.561Z,20.87
2022-08-20T19:43:21.666Z,20.80
2022-08-20T19:46:11.716Z,20.70
2022-08-20T19:49:17.975Z,20.63
2022-08-20T19:52:22.504Z,20.56
2022-08-20T19:55:21.515Z,20.45
2022-08-20T19:58:20.469Z,20.28
2022-08-20T20:01:21.100Z,20.15
2022-08-20T20:04:18.105Z,20.02
2022-08-20T20:07:09.174Z,19.97
2022-08-20T20:09:59.221Z,19.86
2022-08-20T20:12:48.702Z,19.81
2022-08-20T20:15:39.255Z,19.66
2022-08-20T20:18:32.477Z,19.50
2022-08-20T20:21:24.851Z,19.40
2022-08-20T20:24:23.266Z,19.02
2022-08-20T20:27:20.297Z,19.19
2022-08-20T20:30:13.680Z,19.08
2022-08-20T20:33:11.420Z,19.03
2022-08-20T20:36:06.862Z,18.96
2022-08-20T20:38:56.704Z,18.84
2022-08-20T20:41:52.549Z,18.19
2022-08-20T20:44:43.214Z,18.64
2022-08-20T20:47:36.012Z,18.54
2022-08-20T20:50:30.729Z,18.48
2022-08-20T20:53:51.080Z,18.38
2022-08-20T20:56:43.958Z,18.30
2022-08-20T20:59:34.425Z,18.26
2022-08-20T21:02:23.284Z,18.19
2022-08-20T21:05:12.815Z,18.08
2022-08-20T21:08:03.834Z,18.02
2022-08-20T21:10:53.176Z,17.96
2022-08-20T21:13:41.148Z,17.93
2022-08-20T21:16:34.131Z,17.89
2022-08-20T21:19:22.574Z,17.81
2022-08-20T21:22:10.630Z,17.75
2022-08-20T21:24:58.652Z,17.77
2022-08-20T21:27:50.681Z,17.50
2022-08-20T21:30:38.665Z,17.66
2022-08-20T21:33:26.656Z,17.65
2022-08-20T21:36:16.448Z,17.60
2022-08-20T21:39:04.745Z,17.57
2022-08-20T21:41:52.927Z,17.50
2022-08-20T21:44:47.959Z,17.46
2022-08-20T21:47:37.791Z,17.43
2022-08-20T21:50:26.687Z,17.37
2022-08-20T21:53:14.670Z,17.31
2022-08-20T21:56:03.245Z,17.33
2022-08-20T21:58:53.738Z,17.21
2022-08-20T22:01:44.664Z,17.16
2022-08-20T22:04:35.495Z,17.11
2022-08-20T22:07:24.180Z,17.04
2022-08-20T22:10:13.972Z,17.03
2022-08-20T22:13:02.722Z,17.00
2022-08-20T22:15:50.793Z,16.99
2022-08-20T22:18:43.213Z,17.01
2022-08-20T22:21:33.891Z,16.94
2022-08-20T22:24:30.023Z,16.92
2022-08-20T22:27:18.032Z,16.86
2022-08-20T22:30:07.513Z,16.80
2022-08-20T22:32:58.979Z,16.73
2022-08-20T22:35:54.830Z,16.41
2022-08-20T22:38:42.828Z,16.58
2022-08-20T22:41:30.810Z,16.48
2022-08-20T22:44:18.776Z,16.41
2022-08-20T22:47:08.948Z,16.35
2022-08-20T22:49:58.379Z,16.35
2022-08-20T22:52:47.721Z,16.29
2022-08-20T22:55:36.107Z,16.26
2022-08-20T22:58:31.445Z,16.23
2022-08-20T23:01:20.929Z,16.02
2022-08-20T23:04:14.196Z,16.10
2022-08-20T23:07:03.587Z,16.05
2022-08-20T23:09:52.913Z,16.02
2022-08-20T23:12:40.919Z,15.96
2022-08-20T23:15:30.236Z,15.88
2022-08-20T23:18:20.548Z,15.84
2022-08-20T23:21:08.606Z,15.79
2022-08-20T23:23:56.644Z,15.81
2022-08-20T23:26:52.742Z,15.82
2022-08-20T23:29:41.507Z,15.80
2022-08-20T23:32:29.543Z,15.75
2022-08-20T23:35:18.273Z,15.73
2022-08-20T23:38:06.684Z,15.65
2022-08-20T23:40:54.687Z,15.66
2022-08-20T23:43:44.032Z,15.65
2022-08-20T23:46:36.058Z,15.64
2022-08-20T23:49:24.074Z,15.57
2022-08-20T23:52:12.093Z,15.55
2022-08-20T23:55:00.286Z,15.58
2022-08-20T23:57:48.269Z,15.55
